createdAt,value
2019-05-12T00:04:12.000Z,20.35
2019-05-12T00:06:43.052Z,23.65
2019-05-12T00:09:13.884Z,26.42
2019-05-12T00:11:44.754Z,24.70
2019-05-12T00:14:17.815Z,27.90
2019-05-12T00:16:49.114Z,25.85
2019-05-12T00:19:20.236Z,27.22
2019-05-12T00:21:51.114Z,24.47
2019-05-12T00:24:21.824Z,25.02
2019-05-12T00:26:53.917Z,25.50
2019-05-12T00:29:24.955Z,27.35
2019-05-12T00:31:57.921Z,26.97
2019-05-12T00:34:28.849Z,25.05
2019-05-12T00:37:00.083Z,31.20
2019-05-12T00:39:30.801Z,24.27
2019-05-12T00:42:01.763Z,28.95
2019-05-12T00:44:32.652Z,30.72
2019-05-12T00:47:03.531Z,25.12
2019-05-12T00:49:34.379Z,23.15
2019-05-12T00:52:05.311Z,24.30
2019-05-12T00:54:37.562Z,24.82
2019-05-12T00:57:08.336Z,21.68
2019-05-12T00:59:40.032Z,26.05
2019-05-12T01:02:10.744Z,25.75
2019-05-12T01:04:41.514Z,27.93
2019-05-12T01:07:12.343Z,21.87
2019-05-12T01:09:43.137Z,30.68
2019-05-12T01:12:14.160Z,28.17
2019-05-12T01:14:44.767Z,26.90
2019-05-12T01:17:17.249Z,25.80
2019-05-12T01:19:48.585Z,25.95
2019-05-12T01:22:19.479Z,26.23
2019-05-12T01:24:50.191Z,25.72
2019-05-12T01:27:21.162Z,25.90
2019-05-12T01:29:51.978Z,26.90
2019-05-12T01:32:24.191Z,23.75
2019-05-12T01:34:54.962Z,31.42
2019-05-12T01:37:27.785Z,25.55
2019-05-12T01:40:00.114Z,27.85
2019-05-12T01:42:30.157Z,33.55
2019-05-12T01:45:00.991Z,24.87
2019-05-12T01:47:31.585Z,28.30
2019-05-12T01:50:02.521Z,24.87
2019-05-12T01:52:33.331Z,26.15
2019-05-12T01:55:04.199Z,23.47
2019-05-12T01:57:35.267Z,23.02
2019-05-12T02:00:08.064Z,20.43
2019-05-12T02:02:39.179Z,20.90
2019-05-12T02:05:10.489Z,25.88
2019-05-12T02:07:42.747Z,21.23
2019-05-12T02:10:13.945Z,28.27
2019-05-12T02:12:44.760Z,21.17
2019-05-12T02:15:18.356Z,22.42
2019-05-12T02:17:49.412Z,22.75
2019-05-12T02:20:21.356Z,20.17
2019-05-12T02:22:52.073Z,19.23
2019-05-12T02:25:23.052Z,17.45
2019-05-12T02:27:53.820Z,21.48
2019-05-12T02:30:25.039Z,18.50
2019-05-12T02:32:59.124Z,19.12
2019-05-12T02:35:28.148Z,23.98
2019-05-12T02:37:59.017Z,18.40
2019-05-12T02:40:29.908Z,18.67
2019-05-12T02:43:00.825Z,18.55
2019-05-12T02:45:31.575Z,19.73
2019-05-12T02:48:05.039Z,21.45
2019-05-12T02:50:37.335Z,22.58
2019-05-12T02:53:08.722Z,18.65
2019-05-12T02:55:40.229Z,20.80
2019-05-12T02:58:15.196Z,22.13
2019-05-12T03:00:46.831Z,18.98
2019-05-12T03:03:20.210Z,20.55
2019-05-12T03:05:54.867Z,22.90
2019-05-12T03:08:26.090Z,20.68
2019-05-12T03:10:56.992Z,20.88
2019-05-12T03:13:27.943Z,19.50
2019-05-12T03:15:58.984Z,21.55
2019-05-12T03:18:29.731Z,19.82
2019-05-12T03:21:00.504Z,19.45
2019-05-12T03:23:31.215Z,18.87
2019-05-12T03:26:04.922Z,16.25
2019-05-12T03:28:35.565Z,18.67
2019-05-12T03:31:08.129Z,16.65
2019-05-12T03:33:43.546Z,21.40
2019-05-12T03:36:16.860Z,16.02
2019-05-12T03:38:44.804Z,17.48
2019-05-12T03:41:15.627Z,20.23
2019-05-12T03:43:46.616Z,19.37
2019-05-12T03:46:17.368Z,16.90
2019-05-12T03:48:48.181Z,18.62
2019-05-12T03:51:19.425Z,18.30
2019-05-12T03:53:50.331Z,17.37
2019-05-12T03:56:21.167Z,21.27
2019-05-12T03:58:54.087Z,18.82
2019-05-12T04:01:25.519Z,16.85
2019-05-12T04:03:56.311Z,18.07
2019-05-12T04:06:26.966Z,16.70
2019-05-12T04:08:59.952Z,15.72
2019-05-12T04:11:29.863Z,17.32
2019-05-12T04:14:00.679Z,16.67
2019-05-12T04:16:31.371Z,18.17
2019-05-12T04:19:05.028Z,18.02
2019-05-12T04:21:35.107Z,20.27
2019-05-12T04:24:06.530Z,19.00
2019-05-12T04:26:37.369Z,17.65
2019-05-12T04:29:08.171Z,17.32
2019-05-12T04:31:39.085Z,17.62
2019-05-12T04:34:14.286Z,18.60
2019-05-12T04:36:44.616Z,20.88
2019-05-12T04:39:14.814Z,15.30
2019-05-12T04:41:45.971Z,17.35
2019-05-12T04:44:16.951Z,18.62
2019-05-12T04:46:47.619Z,17.12
2019-05-12T04:49:18.623Z,21.42
2019-05-12T04:51:49.249Z,19.23
2019-05-12T04:54:20.099Z,20.27
2019-05-12T04:56:50.769Z,19.95
2019-05-12T04:59:21.671Z,17.32
2019-05-12T05:01:54.085Z,15.23
2019-05-12T05:04:24.618Z,18.67
2019-05-12T05:06:55.621Z,17.02
2019-05-12T05:09:26.473Z,16.70
2019-05-12T05:11:57.079Z,17.67
2019-05-12T05:14:27.840Z,17.90
2019-05-12T05:16:58.663Z,18.00
2019-05-12T05:19:29.531Z,18.90
2019-05-12T05:22:00.321Z,21.68
2019-05-12T05:24:31.101Z,18.37
2019-05-12T05:27:04.264Z,18.62
2019-05-12T05:29:37.033Z,18.75
2019-05-12T05:32:06.531Z,19.12
2019-05-12T05:34:37.418Z,14.45
2019-05-12T05:37:08.200Z,17.12
2019-05-12T05:39:47.905Z,17.37
2019-05-12T05:42:13.439Z,19.57
2019-05-12T05:44:43.738Z,16.20
2019-05-12T05:47:14.979Z,18.17
2019-05-12T05:49:45.727Z,20.25
2019-05-12T05:52:16.679Z,16.37
2019-05-12T05:54:47.556Z,14.80
2019-05-12T05:57:20.025Z,15.58
2019-05-12T05:59:50.538Z,18.85
2019-05-12T06:02:23.151Z,15.10
2019-05-12T06:04:56.265Z,17.52
2019-05-12T06:07:34.851Z,16.95
2019-05-12T06:09:58.087Z,14.95
2019-05-12T06:12:28.971Z,14.83
2019-05-12T06:15:00.031Z,15.60
2019-05-12T06:17:30.942Z,15.10
2019-05-12T06:20:04.214Z,15.40
2019-05-12T06:22:34.297Z,15.95
2019-05-12T06:25:06.039Z,19.12
2019-05-12T06:27:36.917Z,18.87
2019-05-12T06:30:10.150Z,17.02
2019-05-12T06:32:45.915Z,34.98
2019-05-12T06:35:15.111Z,30.75
2019-05-12T06:37:57.317Z,19.62
2019-05-12T06:40:17.847Z,16.50
2019-05-12T06:42:53.216Z,15.85
2019-05-12T06:45:23.363Z,16.50
2019-05-12T06:47:55.935Z,18.57
2019-05-12T06:50:28.692Z,28.70
2019-05-12T06:52:57.737Z,17.77
2019-05-12T06:55:33.376Z,16.17
2019-05-12T06:58:00.954Z,16.73
2019-05-12T07:00:32.627Z,14.68
2019-05-12T07:03:04.236Z,16.15
2019-05-12T07:05:38.404Z,15.53
2019-05-12T07:08:08.383Z,46.53
2019-05-12T07:10:43.484Z,22.50
2019-05-12T07:13:14.746Z,19.25
2019-05-12T07:15:43.911Z,17.30
2019-05-12T07:18:17.796Z,16.55
2019-05-12T07:20:48.551Z,21.07
2019-05-12T07:23:19.536Z,13.15
2019-05-12T07:25:51.554Z,14.43
2019-05-12T07:28:23.723Z,17.20
2019-05-12T07:30:54.686Z,17.30
2019-05-12T07:33:25.623Z,18.42
2019-05-12T07:36:01.297Z,19.32
2019-05-12T07:38:30.896Z,18.67
2019-05-12T07:41:08.921Z,17.82
2019-05-12T07:43:35.159Z,19.05
2019-05-12T07:46:07.228Z,15.40
2019-05-12T07:48:40.345Z,17.62
2019-05-12T07:51:10.534Z,19.15
2019-05-12T07:53:46.818Z,17.82
2019-05-12T07:56:14.437Z,21.55
2019-05-12T07:58:47.508Z,19.40
2019-05-12T08:01:18.601Z,20.75
2019-05-12T08:03:50.906Z,16.90
2019-05-12T08:06:21.569Z,18.30
2019-05-12T08:08:56.581Z,20.12
2019-05-12T08:11:28.723Z,15.03
2019-05-12T08:13:57.039Z,15.48
2019-05-12T08:16:29.662Z,15.48
2019-05-12T08:19:00.094Z,14.38
2019-05-12T08:21:34.841Z,16.20
2019-05-12T08:24:03.783Z,15.45
2019-05-12T08:26:34.653Z,16.52
2019-05-12T08:29:10.490Z,14.15
2019-05-12T08:31:40.678Z,14.70
2019-05-12T08:34:10.088Z,17.92
2019-05-12T08:36:44.966Z,14.85
2019-05-12T08:39:21.292Z,13.95
2019-05-12T08:41:45.234Z,14.25
2019-05-12T08:44:17.649Z,17.05
2019-05-12T08:46:51.766Z,15.03
2019-05-12T08:49:20.396Z,14.30
2019-05-12T08:51:57.757Z,16.02
2019-05-12T08:54:45.419Z,13.10
2019-05-12T08:57:15.167Z,18.50
2019-05-12T08:59:45.825Z,13.43
2019-05-12T09:02:16.773Z,15.15
2019-05-12T09:04:51.397Z,19.95
2019-05-12T09:07:19.846Z,18.02
2019-05-12T09:09:53.215Z,15.13
2019-05-12T09:12:23.298Z,15.63
2019-05-12T09:14:54.625Z,15.30
2019-05-12T09:17:25.739Z,13.83
2019-05-12T09:20:06.064Z,14.45
2019-05-12T09:22:28.761Z,14.50
2019-05-12T09:25:06.341Z,15.18
2019-05-12T09:27:33.339Z,16.42
2019-05-12T09:30:08.015Z,16.02
2019-05-12T09:32:39.131Z,15.10
2019-05-12T09:35:09.452Z,11.80
2019-05-12T09:37:40.594Z,15.08
2019-05-12T09:40:11.600Z,13.08
2019-05-12T09:42:44.042Z,15.65
2019-05-12T09:45:14.795Z,14.03
2019-05-12T09:47:45.597Z,16.70
2019-05-12T09:50:20.326Z,16.75
2019-05-12T09:52:52.474Z,14.70
2019-05-12T09:55:22.793Z,19.67
2019-05-12T09:57:54.392Z,16.05
2019-05-12T10:00:30.490Z,17.40
2019-05-12T10:03:00.643Z,16.70
2019-05-12T10:05:30.577Z,17.35
2019-05-12T10:08:04.557Z,15.88
2019-05-12T10:10:40.126Z,14.33
2019-05-12T10:13:06.976Z,13.45
2019-05-12T10:15:37.961Z,17.75
2019-05-12T10:18:11.036Z,14.23
2019-05-12T10:20:41.052Z,13.95
2019-05-12T10:23:18.626Z,15.43
2019-05-12T10:25:44.702Z,14.40
2019-05-12T10:28:16.199Z,14.40
2019-05-12T10:30:52.513Z,14.20
2019-05-12T10:33:19.477Z,12.55
2019-05-12T10:35:50.289Z,12.65
2019-05-12T10:38:21.212Z,13.98
2019-05-12T10:40:52.033Z,14.83
2019-05-12T10:43:23.674Z,14.10
2019-05-12T10:45:54.587Z,14.68
2019-05-12T10:48:25.327Z,15.43
2019-05-12T10:50:56.149Z,16.73
2019-05-12T10:53:26.989Z,12.85
2019-05-12T10:55:57.773Z,15.60
2019-05-12T10:58:28.593Z,15.25
2019-05-12T11:01:05.404Z,14.23
2019-05-12T11:03:33.742Z,14.05
2019-05-12T11:06:07.393Z,13.75
2019-05-12T11:08:41.372Z,14.50
2019-05-12T11:11:09.206Z,15.25
2019-05-12T11:13:40.343Z,16.20
2019-05-12T11:16:14.655Z,16.57
2019-05-12T11:18:44.686Z,16.05
2019-05-12T11:21:15.660Z,13.53
2019-05-12T11:23:46.386Z,17.40
2019-05-12T11:26:17.560Z,14.50
2019-05-12T11:28:48.495Z,14.13
2019-05-12T11:31:19.295Z,16.62
2019-05-12T11:33:50.277Z,19.73
2019-05-12T11:36:21.279Z,18.55
2019-05-12T11:38:53.357Z,23.57
2019-05-12T11:41:28.245Z,20.45
2019-05-12T11:43:56.668Z,21.02
2019-05-12T11:46:27.648Z,21.12
2019-05-12T11:48:58.527Z,20.95
2019-05-12T11:51:30.665Z,25.85
2019-05-12T11:54:03.395Z,21.75
2019-05-12T11:56:34.039Z,23.45
2019-05-12T11:59:04.778Z,23.73
2019-05-12T12:01:39.570Z,20.48
2019-05-12T12:04:07.729Z,25.35
2019-05-12T12:06:38.594Z,27.45
2019-05-12T12:09:15.259Z,24.45
2019-05-12T12:11:43.327Z,24.47
2019-05-12T12:14:14.416Z,26.48
2019-05-12T12:16:49.928Z,25.60
2019-05-12T12:19:17.373Z,27.73
2019-05-12T12:21:50.055Z,29.72
2019-05-12T12:24:21.413Z,29.23
2019-05-12T12:26:53.732Z,31.25
2019-05-12T12:29:24.763Z,32.98
2019-05-12T12:31:56.754Z,34.30
2019-05-12T12:34:30.103Z,43.92
2019-05-12T12:36:59.933Z,44.83
2019-05-12T12:39:30.821Z,47.13
2019-05-12T12:42:01.635Z,50.55
2019-05-12T12:44:34.071Z,44.98
2019-05-12T12:47:04.801Z,52.00
2019-05-12T12:49:39.847Z,46.28
2019-05-12T12:52:07.791Z,40.35
2019-05-12T12:54:38.490Z,38.33
2019-05-12T12:57:10.068Z,38.58
2019-05-12T12:59:45.056Z,34.03
2019-05-12T13:02:14.232Z,34.27
2019-05-12T13:04:50.060Z,37.58
2019-05-12T13:07:17.404Z,47.95
2019-05-12T13:09:48.301Z,57.15
2019-05-12T13:12:19.704Z,61.70
2019-05-12T13:14:53.095Z,57.17
2019-05-12T13:17:29.041Z,55.10
2019-05-12T13:19:58.689Z,50.30
2019-05-12T13:22:29.549Z,50.88
2019-05-12T13:25:06.464Z,42.85
2019-05-12T13:27:36.348Z,36.25
2019-05-12T13:30:05.402Z,34.88
2019-05-12T13:32:37.954Z,34.95
2019-05-12T13:35:15.328Z,32.00
2019-05-12T13:37:43.268Z,35.20
2019-05-12T13:40:14.915Z,35.98
2019-05-12T13:42:45.643Z,29.48
2019-05-12T13:45:16.806Z,28.77
2019-05-12T13:47:47.848Z,30.77
2019-05-12T13:50:26.070Z,28.00
2019-05-12T13:52:51.185Z,29.92
2019-05-12T13:55:23.815Z,27.82
2019-05-12T13:57:57.762Z,33.02
2019-05-12T14:00:26.285Z,40.17
2019-05-12T14:03:03.547Z,42.58
2019-05-12T14:05:29.350Z,36.80
2019-05-12T14:08:00.201Z,32.58
2019-05-12T14:10:33.209Z,35.58
2019-05-12T14:13:03.523Z,34.50
2019-05-12T14:15:34.432Z,42.67
2019-05-12T14:18:05.149Z,41.25
2019-05-12T14:20:35.743Z,39.98
2019-05-12T14:23:06.638Z,37.20
2019-05-12T14:25:37.430Z,39.58
2019-05-12T14:28:09.600Z,39.03
2019-05-12T14:30:41.301Z,43.17
2019-05-12T14:33:12.854Z,40.95
2019-05-12T14:35:46.026Z,47.73
2019-05-12T14:38:19.294Z,40.92
2019-05-12T14:40:48.059Z,38.85
2019-05-12T14:43:21.258Z,35.90
2019-05-12T14:45:51.173Z,35.20
2019-05-12T14:48:22.167Z,38.45
2019-05-12T14:50:53.546Z,33.45
2019-05-12T14:53:24.481Z,38.23
2019-05-12T14:55:55.242Z,34.75
2019-05-12T14:58:26.801Z,34.05
2019-05-12T15:00:58.251Z,34.18
2019-05-12T15:03:29.343Z,33.75
2019-05-12T15:06:00.186Z,36.63
2019-05-12T15:08:36.295Z,35.95
2019-05-12T15:11:03.930Z,35.35
2019-05-12T15:13:34.914Z,32.42
2019-05-12T15:16:06.782Z,37.42
2019-05-12T15:18:39.611Z,35.80
2019-05-12T15:21:09.628Z,41.53
2019-05-12T15:23:40.696Z,41.37
2019-05-12T15:26:17.708Z,40.03
2019-05-12T15:28:43.951Z,35.38
2019-05-12T15:31:14.814Z,35.73
2019-05-12T15:33:45.603Z,35.73
2019-05-12T15:36:16.700Z,35.65
2019-05-12T15:38:49.149Z,36.70
2019-05-12T15:41:20.210Z,38.00
2019-05-12T15:43:52.918Z,39.45
2019-05-12T15:46:24.548Z,35.35
2019-05-12T15:48:55.514Z,34.58
2019-05-12T15:51:26.555Z,39.15
2019-05-12T15:54:05.345Z,34.08
2019-05-12T15:56:29.746Z,33.60
2019-05-12T15:59:02.621Z,36.90
2019-05-12T16:01:33.512Z,39.83
2019-05-12T16:04:04.454Z,36.28
2019-05-12T16:06:35.330Z,39.35
2019-05-12T16:09:07.645Z,37.08
2019-05-12T16:11:38.474Z,34.25
2019-05-12T16:14:09.477Z,37.25
2019-05-12T16:16:42.511Z,41.75
2019-05-12T16:19:14.531Z,39.75
2019-05-12T16:21:45.617Z,38.55
2019-05-12T16:24:16.696Z,38.53
2019-05-12T16:26:51.848Z,35.28
2019-05-12T16:29:19.762Z,35.92
2019-05-12T16:31:50.583Z,38.88
2019-05-12T16:34:21.248Z,37.38
2019-05-12T16:36:54.769Z,36.83
2019-05-12T16:39:24.460Z,34.70
2019-05-12T16:41:59.958Z,34.65
2019-05-12T16:44:27.696Z,39.42
2019-05-12T16:46:58.503Z,35.70
2019-05-12T16:49:33.221Z,42.67
2019-05-12T16:52:03.504Z,39.42
2019-05-12T16:54:33.694Z,37.03
2019-05-12T16:57:06.464Z,38.83
2019-05-12T16:59:36.916Z,40.23
2019-05-12T17:02:09.766Z,37.48
2019-05-12T17:04:40.251Z,39.85
2019-05-12T17:07:17.305Z,37.85
2019-05-12T17:09:43.887Z,39.67
2019-05-12T17:12:14.886Z,40.28
2019-05-12T17:14:49.910Z,35.73
2019-05-12T17:17:20.995Z,37.20
2019-05-12T17:19:49.697Z,38.88
2019-05-12T17:22:20.514Z,34.25
2019-05-12T17:24:53.698Z,38.17
2019-05-12T17:27:26.667Z,37.30
2019-05-12T17:29:55.730Z,38.30
2019-05-12T17:32:26.705Z,32.78
2019-05-12T17:34:57.473Z,37.55
2019-05-12T17:37:31.502Z,38.50
2019-05-12T17:40:00.625Z,40.58
2019-05-12T17:42:33.297Z,40.78
2019-05-12T17:45:03.927Z,40.20
2019-05-12T17:47:34.770Z,41.35
2019-05-12T17:50:10.297Z,42.50
2019-05-12T17:52:39.513Z,46.13
2019-05-12T17:55:10.998Z,52.60
2019-05-12T17:57:43.782Z,49.67
2019-05-12T18:00:16.023Z,51.90
2019-05-12T18:02:49.422Z,46.98
2019-05-12T18:05:20.160Z,49.25
2019-05-12T18:07:52.360Z,41.75
2019-05-12T18:10:23.890Z,49.05
2019-05-12T18:12:54.949Z,44.10
2019-05-12T18:15:32.262Z,44.30
2019-05-12T18:17:57.946Z,45.23
2019-05-12T18:20:31.177Z,44.35
2019-05-12T18:23:01.200Z,41.48
2019-05-12T18:25:32.374Z,44.15
2019-05-12T18:28:03.744Z,41.60
2019-05-12T18:30:34.871Z,42.08
2019-05-12T18:33:09.130Z,46.40
2019-05-12T18:35:37.890Z,38.23
2019-05-12T18:38:18.158Z,39.00
2019-05-12T18:40:41.021Z,40.43
2019-05-12T18:43:14.016Z,39.92
2019-05-12T18:45:48.665Z,39.83
2019-05-12T18:48:21.792Z,36.23
2019-05-12T18:50:49.005Z,41.68
2019-05-12T18:53:27.649Z,40.50
2019-05-12T18:55:53.936Z,42.27
2019-05-12T18:58:30.678Z,39.80
2019-05-12T19:00:56.329Z,39.90
2019-05-12T19:03:27.331Z,43.63
2019-05-12T19:05:58.336Z,37.13
2019-05-12T19:08:29.260Z,37.73
2019-05-12T19:11:13.999Z,38.20
2019-05-12T19:13:33.793Z,42.43
2019-05-12T19:16:07.021Z,38.63
2019-05-12T19:18:37.384Z,35.00
2019-05-12T19:21:10.107Z,39.23
2019-05-12T19:23:40.737Z,40.98
2019-05-12T19:26:13.412Z,34.23
2019-05-12T19:28:52.596Z,38.33
2019-05-12T19:31:16.319Z,36.53
2019-05-12T19:33:56.662Z,40.75
2019-05-12T19:36:19.330Z,40.60
2019-05-12T19:38:50.126Z,42.35
2019-05-12T19:41:20.947Z,44.58
2019-05-12T19:43:53.436Z,46.60
2019-05-12T19:46:24.302Z,46.20
2019-05-12T19:48:55.051Z,50.65
2019-05-12T19:51:28.338Z,47.53
2019-05-12T19:53:58.070Z,48.98
2019-05-12T19:56:34.486Z,48.05
2019-05-12T19:59:01.179Z,49.48
2019-05-12T20:01:34.123Z,52.13
2019-05-12T20:04:04.297Z,52.60
2019-05-12T20:06:34.959Z,51.05
2019-05-12T20:09:10.780Z,50.48
2019-05-12T20:11:39.536Z,54.63
2019-05-12T20:14:15.655Z,58.73
2019-05-12T20:16:43.939Z,53.05
2019-05-12T20:19:14.455Z,56.63
2019-05-12T20:21:45.298Z,46.92
2019-05-12T20:24:16.219Z,49.38
2019-05-12T20:26:47.101Z,51.10
2019-05-12T20:29:17.889Z,43.58
2019-05-12T20:31:48.850Z,40.15
2019-05-12T20:34:19.595Z,40.95
2019-05-12T20:36:50.517Z,38.02
2019-05-12T20:39:22.360Z,41.58
2019-05-12T20:41:54.471Z,39.53
2019-05-12T20:44:25.728Z,35.30
2019-05-12T20:47:01.358Z,35.70
2019-05-12T20:49:28.772Z,37.10
2019-05-12T20:52:03.635Z,33.65
2019-05-12T20:54:33.547Z,36.35
2019-05-12T20:57:08.046Z,36.25
2019-05-12T20:59:36.038Z,38.10
2019-05-12T21:02:06.882Z,37.30
2019-05-12T21:04:38.031Z,35.05
2019-05-12T21:07:13.996Z,36.40
2019-05-12T21:09:41.376Z,31.95
2019-05-12T21:12:13.665Z,36.75
2019-05-12T21:14:51.410Z,32.05
2019-05-12T21:17:18.498Z,32.93
2019-05-12T21:19:56.704Z,35.70
2019-05-12T21:22:23.455Z,37.53
2019-05-12T21:24:53.449Z,40.98
2019-05-12T21:27:24.981Z,37.33
2019-05-12T21:30:00.637Z,35.40
2019-05-12T21:32:28.160Z,36.55
2019-05-12T21:34:59.575Z,35.48
2019-05-12T21:37:30.679Z,36.00
2019-05-12T21:40:03.676Z,33.45
2019-05-12T21:42:33.927Z,32.00
2019-05-12T21:45:04.875Z,37.17
2019-05-12T21:47:42.860Z,39.58
2019-05-12T21:50:08.563Z,42.65
2019-05-12T21:52:39.422Z,40.23
2019-05-12T21:55:13.601Z,35.55
2019-05-12T21:57:43.743Z,32.65
2019-05-12T22:00:20.178Z,31.90
2019-05-12T22:02:53.413Z,31.07
2019-05-12T22:05:46.677Z,31.35
2019-05-12T22:07:55.744Z,31.40
2019-05-12T22:10:30.606Z,34.43
2019-05-12T22:13:00.461Z,33.20
2019-05-12T22:15:33.650Z,32.83
2019-05-12T22:18:04.791Z,32.38
2019-05-12T22:20:37.324Z,30.00
2019-05-12T22:23:11.958Z,31.10
2019-05-12T22:25:40.559Z,31.90
2019-05-12T22:28:13.295Z,32.15
